Time;durP1;ratioP1;P1;durP2;ratioP2;P2;SDS_P1;SDS_P2;PMS_P1;PMS_P2;Temp;Humidity;BMP_temperature;BMP_pressure;BME280_temperature;BME280_humidity;BME280_pressure;Samples;Min_cycle;Max_cycle;Signal;HPM_P1;HPM_P2
2022/09/22 00:02:09;;;;;;;;;;;8.90;83.60;;;;;;5045172;28;19925;-81
2022/09/22 00:04:34;;;;;;;;;;;8.90;83.40;;;;;;5055570;28;20483;-82
2022/09/22 00:07:00;;;;;;;;;;;8.80;84.00;;;;;;5056078;28;19912;-83
2022/09/22 00:09:25;;;;;;;;;;;8.80;83.70;;;;;;5051111;28;19913;-83
2022/09/22 00:11:54;;;;;;;;;;;8.80;83.50;;;;;;5044980;28;19924;-82
2022/09/22 00:14:24;;;;;;;;;;;8.80;83.30;;;;;;5044067;28;19999;-82
2022/09/22 00:16:54;;;;;;;;;;;8.70;83.30;;;;;;5067508;28;20345;-82
2022/09/22 00:19:21;;;;;;;;;;;8.80;83.30;;;;;;5050232;28;19923;-82
2022/09/22 00:21:47;;;;;;;;;;;8.80;83.30;;;;;;5043813;28;19913;-83
2022/09/22 00:24:13;;;;;;;;;;;8.70;83.90;;;;;;5046873;28;19912;-82
2022/09/22 00:26:39;;;;;;;;;;;8.70;83.70;;;;;;5048500;28;19919;-82
2022/09/22 00:29:06;;;;;;;;;;;8.60;83.60;;;;;;5044290;28;20278;-82
2022/09/22 00:31:32;;;;;;;;;;;8.60;83.70;;;;;;5050209;28;20311;-82
2022/09/22 00:33:57;;;;;;;;;;;8.70;84.00;;;;;;5062568;28;19920;-82
2022/09/22 00:36:24;;;;;;;;;;;8.60;83.80;;;;;;5044191;28;20011;-82
2022/09/22 00:38:50;;;;;;;;;;;8.50;83.80;;;;;;5047964;28;20365;-83
2022/09/22 00:41:20;;;;;;;;;;;8.60;83.90;;;;;;5067624;28;20377;-82
2022/09/22 00:43:47;;;;;;;;;;;8.60;84.30;;;;;;5048219;28;19913;-82
2022/09/22 00:46:15;;;;;;;;;;;8.60;84.00;;;;;;5052608;28;19924;-82
2022/09/22 00:48:43;;;;;;;;;;;8.60;84.30;;;;;;5089605;22;19970;-82
2022/09/22 00:51:10;;;;;;;;;;;8.60;83.90;;;;;;5094407;28;19924;-82
2022/09/22 00:53:36;;;;;;;;;;;8.50;84.10;;;;;;5069614;28;19916;-82
2022/09/22 00:56:13;;;;;;;;;;;8.50;84.30;;;;;;5095390;28;20375;-82
2022/09/22 00:58:44;;;;;;;;;;;8.60;84.00;;;;;;5067177;28;19916;-83
2022/09/22 01:01:09;;;;;;;;;;;8.50;83.80;;;;;;5071140;28;19954;-83
2022/09/22 01:03:38;;;;;;;;;;;8.50;83.60;;;;;;5065444;28;19913;-83
2022/09/22 01:06:05;;;;;;;;;;;8.50;83.30;;;;;;5072397;28;19916;-83
2022/09/22 01:08:30;;;;;;;;;;;8.40;83.50;;;;;;5075501;28;20404;-83
2022/09/22 01:10:58;;;;;;;;;;;8.40;83.30;;;;;;5087329;28;19920;-83
2022/09/22 01:13:23;;;;;;;;;;;8.30;83.30;;;;;;5089498;28;19919;-83
2022/09/22 01:15:55;;;;;;;;;;;8.30;83.40;;;;;;5074223;28;19916;-82
2022/09/22 01:18:35;;;;;;;;;;;8.20;83.90;;;;;;5073649;28;19962;-83
2022/09/22 01:21:11;;;;;;;;;;;8.30;84.10;;;;;;5065989;28;19918;-83
2022/09/22 01:23:43;;;;;;;;;;;8.30;84.20;;;;;;5075456;28;19986;-83
2022/09/22 01:26:33;;;;;;;;;;;8.30;84.30;;;;;;5066313;28;19909;-83
2022/09/22 01:29:09;;;;;;;;;;;8.30;84.50;;;;;;5091020;28;20439;-83
2022/09/22 01:31:47;;;;;;;;;;;8.30;84.40;;;;;;5090513;28;20002;-82
2022/09/22 01:34:31;;;;;;;;;;;8.30;84.10;;;;;;5090471;28;19947;-82
2022/09/22 01:37:15;;;;;;;;;;;8.30;84.00;;;;;;5073196;28;19916;-83
2022/09/22 01:39:42;;;;;;;;;;;8.20;84.30;;;;;;5078680;28;19920;-83
2022/09/22 01:42:07;;;;;;;;;;;8.30;84.50;;;;;;5100680;28;19916;-82
2022/09/22 01:44:42;;;;;;;;;;;8.30;84.10;;;;;;5081498;28;19935;-83
2022/09/22 01:47:13;;;;;;;;;;;8.30;84.00;;;;;;5074886;28;19938;-83
2022/09/22 01:49:42;;;;;;;;;;;8.30;83.70;;;;;;5096188;28;20212;-83
2022/09/22 01:52:13;;;;;;;;;;;8.20;83.70;;;;;;5093847;28;19987;-82
2022/09/22 01:54:49;;;;;;;;;;;8.10;83.80;;;;;;5080167;28;20347;-83
2022/09/22 01:57:23;;;;;;;;;;;8.20;84.00;;;;;;5100012;28;19912;-83
2022/09/22 01:59:51;;;;;;;;;;;8.10;84.10;;;;;;5092892;28;19916;-83
2022/09/22 02:02:28;;;;;;;;;;;8.10;83.90;;;;;;5080132;28;19923;-83
2022/09/22 02:04:57;;;;;;;;;;;8.00;84.20;;;;;;5098748;28;19919;-83
2022/09/22 02:07:24;;;;;;;;;;;8.00;84.30;;;;;;5093423;28;19934;-83
2022/09/22 02:09:50;;;;;;;;;;;8.00;83.90;;;;;;5082900;28;19966;-82
2022/09/22 02:12:17;;;;;;;;;;;8.10;83.70;;;;;;5092993;28;20357;-83
2022/09/22 02:14:43;;;;;;;;;;;8.00;83.60;;;;;;5088554;28;20242;-83
2022/09/22 02:17:09;;;;;;;;;;;7.90;83.40;;;;;;5106113;28;19975;-83
2022/09/22 02:19:36;;;;;;;;;;;8.00;83.60;;;;;;5100045;28;20303;-83
2022/09/22 02:22:02;;;;;;;;;;;8.00;84.10;;;;;;5090840;28;19919;-83
2022/09/22 02:24:30;;;;;;;;;;;7.90;83.50;;;;;;5100034;28;20302;-83
2022/09/22 02:26:56;;;;;;;;;;;7.90;83.60;;;;;;5089710;28;19924;-83
2022/09/22 02:29:23;;;;;;;;;;;7.80;83.60;;;;;;5076096;28;20011;-83
2022/09/22 02:31:49;;;;;;;;;;;7.90;83.70;;;;;;5086951;28;19928;-83
2022/09/22 02:34:14;;;;;;;;;;;7.90;83.40;;;;;;5067178;28;20295;-82
2022/09/22 02:36:53;;;;;;;;;;;7.80;84.10;;;;;;5075789;28;19912;-83
2022/09/22 02:39:25;;;;;;;;;;;7.80;83.70;;;;;;5074447;28;19995;-83
2022/09/22 02:42:09;;;;;;;;;;;7.80;83.70;;;;;;5067875;28;20298;-83
2022/09/22 02:44:42;;;;;;;;;;;7.80;83.60;;;;;;5086819;28;19937;-82
2022/09/22 02:47:31;;;;;;;;;;;7.70;83.70;;;;;;5084566;28;20397;-83
2022/09/22 02:49:57;;;;;;;;;;;7.60;83.90;;;;;;5065368;28;19931;-83
2022/09/22 02:52:23;;;;;;;;;;;7.70;83.90;;;;;;5075939;28;20367;-83
2022/09/22 02:54:50;;;;;;;;;;;7.60;84.00;;;;;;5075044;28;19923;-83
2022/09/22 02:57:16;;;;;;;;;;;7.70;84.10;;;;;;5074752;28;19916;-83
2022/09/22 02:59:41;;;;;;;;;;;7.70;84.00;;;;;;5083035;28;19939;-83
2022/09/22 03:02:07;;;;;;;;;;;7.80;83.70;;;;;;5068725;28;19923;-83
2022/09/22 03:04:32;;;;;;;;;;;7.70;83.30;;;;;;5086521;28;20410;-83
2022/09/22 03:06:58;;;;;;;;;;;7.60;83.70;;;;;;5063985;28;20014;-83
2022/09/22 03:09:23;;;;;;;;;;;7.60;83.90;;;;;;5069162;28;19948;-83
2022/09/22 03:11:49;;;;;;;;;;;7.60;83.80;;;;;;5065870;28;19916;-83
2022/09/22 03:14:14;;;;;;;;;;;7.70;83.50;;;;;;5088411;28;19919;-82
2022/09/22 03:16:40;;;;;;;;;;;7.70;83.60;;;;;;5067310;28;19912;-82
2022/09/22 03:19:05;;;;;;;;;;;7.70;84.10;;;;;;5063010;28;19912;-83
2022/09/22 03:21:30;;;;;;;;;;;7.80;84.30;;;;;;5082044;28;19965;-82
2022/09/22 03:23:56;;;;;;;;;;;8.00;83.70;;;;;;5088238;28;19917;-82
2022/09/22 03:26:21;;;;;;;;;;;7.80;83.70;;;;;;5106914;28;19900;-82
2022/09/22 03:28:47;;;;;;;;;;;7.80;84.10;;;;;;5088443;28;19927;-83
2022/09/22 03:31:13;;;;;;;;;;;7.80;83.90;;;;;;5079234;28;19940;-83
2022/09/22 03:33:38;;;;;;;;;;;7.80;84.50;;;;;;5077318;28;19919;-83
2022/09/22 03:36:04;;;;;;;;;;;7.80;84.20;;;;;;5083443;28;19916;-82
2022/09/22 03:38:30;;;;;;;;;;;7.80;84.10;;;;;;5081525;28;19919;-83
2022/09/22 03:40:57;;;;;;;;;;;7.80;84.40;;;;;;5076440;28;19920;-83
2022/09/22 03:43:23;;;;;;;;;;;7.80;84.30;;;;;;5087802;28;19959;-82
2022/09/22 03:45:54;;;;;;;;;;;7.90;84.30;;;;;;5073091;28;19916;-82
2022/09/22 03:48:19;;;;;;;;;;;7.90;84.10;;;;;;5071267;28;19916;-82
2022/09/22 03:50:45;;;;;;;;;;;7.80;83.90;;;;;;5088902;28;20382;-82
2022/09/22 03:53:10;;;;;;;;;;;7.80;84.00;;;;;;5089391;28;20286;-83
2022/09/22 03:55:36;;;;;;;;;;;7.80;83.80;;;;;;5080177;28;19916;-83
2022/09/22 03:58:02;;;;;;;;;;;7.70;83.70;;;;;;5081963;28;19919;-83
2022/09/22 04:00:28;;;;;;;;;;;7.70;83.80;;;;;;5090871;28;19908;-83
2022/09/22 04:02:53;;;;;;;;;;;7.60;84.10;;;;;;5072635;28;19918;-83
2022/09/22 04:05:19;;;;;;;;;;;7.60;84.30;;;;;;5088756;28;19922;-83
2022/09/22 04:07:44;;;;;;;;;;;7.60;84.30;;;;;;5066132;28;20371;-83
2022/09/22 04:10:10;;;;;;;;;;;7.50;84.30;;;;;;5058041;28;19961;-82
2022/09/22 04:12:36;;;;;;;;;;;7.50;84.40;;;;;;5053717;28;19916;-82
2022/09/22 04:15:01;;;;;;;;;;;7.50;84.20;;;;;;5070418;28;20302;-83
2022/09/22 04:17:27;;;;;;;;;;;7.30;84.10;;;;;;5063634;28;19917;-82
2022/09/22 04:19:54;;;;;;;;;;;7.40;83.90;;;;;;5068073;28;19919;-82
2022/09/22 04:22:19;;;;;;;;;;;7.40;84.30;;;;;;5090176;28;19966;-82
2022/09/22 04:24:45;;;;;;;;;;;7.40;84.20;;;;;;5081540;28;19912;-81
2022/09/22 04:27:10;;;;;;;;;;;7.40;84.50;;;;;;5060217;28;19909;-82
2022/09/22 04:29:35;;;;;;;;;;;7.40;84.30;;;;;;5066960;28;19951;-82
2022/09/22 04:32:01;;;;;;;;;;;7.40;84.40;;;;;;5076791;28;19928;-82
2022/09/22 04:34:26;;;;;;;;;;;7.40;84.30;;;;;;5080724;28;19926;-83
2022/09/22 04:36:52;;;;;;;;;;;7.40;84.10;;;;;;5073369;28;19919;-83
2022/09/22 04:39:17;;;;;;;;;;;7.30;84.30;;;;;;5096534;28;19978;-83
2022/09/22 04:41:43;;;;;;;;;;;7.30;84.00;;;;;;5098951;28;19912;-83
2022/09/22 04:44:08;;;;;;;;;;;7.30;83.70;;;;;;5094199;28;19916;-83
2022/09/22 04:46:33;;;;;;;;;;;7.30;83.80;;;;;;5081196;28;19920;-82
2022/09/22 04:48:59;;;;;;;;;;;7.30;84.10;;;;;;5069440;28;19922;-83
2022/09/22 04:51:24;;;;;;;;;;;7.30;84.00;;;;;;5075906;28;19927;-83
2022/09/22 04:53:50;;;;;;;;;;;7.30;84.20;;;;;;5096583;28;20011;-83
2022/09/22 04:56:16;;;;;;;;;;;7.30;84.20;;;;;;5083300;28;20010;-83
2022/09/22 04:58:41;;;;;;;;;;;7.20;84.20;;;;;;5077794;28;19912;-83
2022/09/22 05:01:07;;;;;;;;;;;7.30;83.90;;;;;;5071912;28;19976;-84
2022/09/22 05:03:36;;;;;;;;;;;7.30;83.80;;;;;;5078659;28;19912;-84
2022/09/22 05:06:03;;;;;;;;;;;7.30;83.70;;;;;;5086405;28;20498;-84
2022/09/22 05:08:28;;;;;;;;;;;7.20;83.70;;;;;;5084864;28;20011;-82
2022/09/22 05:10:55;;;;;;;;;;;7.10;83.70;;;;;;5062427;28;20006;-81
2022/09/22 05:13:21;;;;;;;;;;;7.10;84.00;;;;;;5068463;28;19908;-81
2022/09/22 05:15:46;;;;;;;;;;;7.20;84.30;;;;;;5086630;28;19923;-81
2022/09/22 05:18:11;;;;;;;;;;;7.30;84.20;;;;;;5064983;28;19920;-81
2022/09/22 05:20:38;;;;;;;;;;;7.20;84.40;;;;;;5081781;28;19927;-80
2022/09/22 05:23:05;;;;;;;;;;;7.10;84.50;;;;;;5083591;28;19921;-82
2022/09/22 05:25:31;;;;;;;;;;;7.20;85.00;;;;;;5067050;28;20263;-81
2022/09/22 05:27:56;;;;;;;;;;;7.20;85.00;;;;;;5095342;28;19995;-80
2022/09/22 05:30:23;;;;;;;;;;;7.20;85.20;;;;;;5090604;28;19912;-81
2022/09/22 05:32:49;;;;;;;;;;;7.30;84.80;;;;;;5089440;28;19961;-84
2022/09/22 05:35:22;;;;;;;;;;;7.40;84.40;;;;;;5088211;28;19923;-83
2022/09/22 05:37:48;;;;;;;;;;;7.40;84.40;;;;;;5064602;28;19934;-83
2022/09/22 05:40:14;;;;;;;;;;;7.40;84.30;;;;;;5071301;28;19920;-87
2022/09/22 05:42:44;;;;;;;;;;;7.40;84.20;;;;;;5062515;28;19919;-83
2022/09/22 05:45:10;;;;;;;;;;;7.40;84.50;;;;;;5080698;28;19916;-85
2022/09/22 05:47:36;;;;;;;;;;;7.40;84.60;;;;;;5065739;28;19909;-82
2022/09/22 05:50:01;;;;;;;;;;;7.40;84.90;;;;;;5081187;28;19995;-82
2022/09/22 05:52:27;;;;;;;;;;;7.40;85.10;;;;;;5080221;28;19955;-82
2022/09/22 05:54:52;;;;;;;;;;;7.40;85.40;;;;;;5077616;28;19909;-81
2022/09/22 05:57:24;;;;;;;;;;;7.30;85.90;;;;;;5075312;28;19909;-81
2022/09/22 05:59:50;;;;;;;;;;;7.40;85.80;;;;;;5061503;28;19920;-82
2022/09/22 06:02:15;;;;;;;;;;;7.50;85.00;;;;;;5091081;28;19916;-82
2022/09/22 06:04:41;;;;;;;;;;;7.40;85.70;;;;;;5063160;28;19912;-82
2022/09/22 06:07:06;;;;;;;;;;;7.30;85.50;;;;;;5073817;28;19966;-82
2022/09/22 06:09:31;;;;;;;;;;;7.40;85.70;;;;;;5080744;28;20330;-82
2022/09/22 06:11:57;;;;;;;;;;;7.30;86.30;;;;;;5063649;28;20037;-81
2022/09/22 06:14:23;;;;;;;;;;;7.40;86.30;;;;;;5070515;28;19931;-80
2022/09/22 06:16:48;;;;;;;;;;;7.50;86.60;;;;;;5063261;28;19955;-81
2022/09/22 06:19:13;;;;;;;;;;;7.50;86.70;;;;;;5080022;28;19916;-80
2022/09/22 06:21:39;;;;;;;;;;;7.60;86.60;;;;;;5088625;28;19912;-81
2022/09/22 06:24:05;;;;;;;;;;;7.60;86.30;;;;;;5086409;28;20362;-80
2022/09/22 06:26:31;;;;;;;;;;;7.60;86.10;;;;;;5071803;28;19913;-81
2022/09/22 06:28:57;;;;;;;;;;;7.60;86.10;;;;;;5066389;28;19938;-81
2022/09/22 06:31:23;;;;;;;;;;;7.60;86.20;;;;;;5089866;28;19916;-81
2022/09/22 06:33:49;;;;;;;;;;;7.60;86.60;;;;;;5092995;28;19915;-81
2022/09/22 06:36:22;;;;;;;;;;;7.80;87.10;;;;;;5097449;28;20003;-80
2022/09/22 06:38:48;;;;;;;;;;;7.90;86.60;;;;;;5107555;28;19908;-81
2022/09/22 06:41:14;;;;;;;;;;;8.00;87.20;;;;;;5100710;28;19916;-81
2022/09/22 06:43:41;;;;;;;;;;;8.00;87.40;;;;;;5081710;28;19913;-81
2022/09/22 06:46:09;;;;;;;;;;;8.10;88.00;;;;;;5089842;28;19926;-79
2022/09/22 06:51:04;;;;;;;;;;;8.30;88.30;;;;;;5076312;28;19924;-79
2022/09/22 06:53:30;;;;;;;;;;;8.30;88.40;;;;;;5084306;28;19913;-77
2022/09/22 06:55:59;;;;;;;;;;;8.40;88.30;;;;;;5082310;28;19966;-79
2022/09/22 06:58:25;;;;;;;;;;;8.50;88.40;;;;;;5052352;28;19913;-79
2022/09/22 07:00:52;;;;;;;;;;;8.60;88.20;;;;;;5042151;28;19913;-77
2022/09/22 07:03:19;;;;;;;;;;;8.60;88.10;;;;;;5039916;28;20323;-77
2022/09/22 07:06:17;;;;;;;;;;;8.70;87.70;;;;;;5049450;28;19959;-77
2022/09/22 07:08:43;;;;;;;;;;;8.70;87.60;;;;;;5037013;28;19958;-77
2022/09/22 07:11:09;;;;;;;;;;;8.80;87.70;;;;;;5072424;28;19932;-77
2022/09/22 07:13:38;;;;;;;;;;;8.90;87.60;;;;;;5038872;28;20049;-77
2022/09/22 07:16:08;;;;;;;;;;;9.00;87.60;;;;;;5055841;28;19932;-79
2022/09/22 07:18:34;;;;;;;;;;;9.00;87.60;;;;;;5063501;28;20334;-78
2022/09/22 07:21:04;;;;;;;;;;;9.10;87.60;;;;;;5064768;28;19924;-79
2022/09/22 07:23:30;;;;;;;;;;;9.10;87.70;;;;;;5045925;28;19916;-78
2022/09/22 07:25:58;;;;;;;;;;;9.20;87.80;;;;;;5041698;28;19924;-77
2022/09/22 07:28:26;;;;;;;;;;;9.30;87.80;;;;;;5042165;28;20319;-78
2022/09/22 07:30:52;;;;;;;;;;;9.40;87.40;;;;;;5041494;28;19917;-78
2022/09/22 07:33:18;;;;;;;;;;;9.50;87.50;;;;;;5058032;28;20312;-78
2022/09/22 07:35:45;;;;;;;;;;;9.60;87.00;;;;;;5039804;28;21307;-78
2022/09/22 07:38:11;;;;;;;;;;;9.60;86.40;;;;;;5062951;28;20023;-79
2022/09/22 07:40:36;;;;;;;;;;;9.70;86.60;;;;;;5063237;28;19913;-79
2022/09/22 07:43:02;;;;;;;;;;;9.80;86.40;;;;;;5042510;28;20348;-80
2022/09/22 07:45:27;;;;;;;;;;;9.80;86.40;;;;;;5059019;28;19919;-79
2022/09/22 07:50:37;;;;;;;;;;;10.00;85.80;;;;;;5069179;28;19922;-81
2022/09/22 07:53:03;;;;;;;;;;;10.00;85.00;;;;;;5056774;28;20280;-81
2022/09/22 07:55:28;;;;;;;;;;;10.10;84.90;;;;;;5058980;28;20011;-82
2022/09/22 07:57:54;;;;;;;;;;;10.20;84.60;;;;;;5056308;28;19913;-81
2022/09/22 08:00:20;;;;;;;;;;;10.40;84.40;;;;;;5066384;28;19940;-79
2022/09/22 08:02:54;;;;;;;;;;;10.40;84.20;;;;;;5083085;28;19917;-81
2022/09/22 08:05:20;;;;;;;;;;;10.50;83.90;;;;;;5081028;28;19920;-80
2022/09/22 08:07:45;;;;;;;;;;;10.60;84.00;;;;;;5049497;28;19996;-82
2022/09/22 08:10:12;;;;;;;;;;;10.80;83.30;;;;;;5060547;28;20023;-79
2022/09/22 08:12:38;;;;;;;;;;;10.80;83.60;;;;;;5068194;28;19922;-80
2022/09/22 08:15:04;;;;;;;;;;;10.90;83.50;;;;;;5071856;28;19940;-81
2022/09/22 08:17:29;;;;;;;;;;;10.90;83.40;;;;;;5045194;28;20347;-79
2022/09/22 08:19:55;;;;;;;;;;;11.00;83.20;;;;;;5070510;28;19916;-82
2022/09/22 08:22:21;;;;;;;;;;;11.10;82.50;;;;;;5052082;28;19913;-81
2022/09/22 08:24:46;;;;;;;;;;;11.30;82.40;;;;;;5053747;28;19973;-81
2022/09/22 08:27:12;;;;;;;;;;;11.30;82.10;;;;;;5053397;28;19947;-82
2022/09/22 08:29:37;;;;;;;;;;;11.50;82.10;;;;;;5050144;28;20388;-81
2022/09/22 08:32:03;;;;;;;;;;;11.50;82.30;;;;;;5078007;28;19916;-82
2022/09/22 08:34:28;;;;;;;;;;;11.50;82.30;;;;;;5060582;28;20007;-81
2022/09/22 08:36:54;;;;;;;;;;;11.60;82.30;;;;;;5057668;28;20015;-78
2022/09/22 08:39:20;;;;;;;;;;;11.80;81.90;;;;;;5065652;28;20373;-79
2022/09/22 08:41:57;;;;;;;;;;;11.90;81.60;;;;;;5067530;28;19968;-80
2022/09/22 08:44:24;;;;;;;;;;;11.90;81.40;;;;;;5047605;28;19920;-82
2022/09/22 08:46:51;;;;;;;;;;;12.10;80.30;;;;;;5059166;28;19981;-79
2022/09/22 08:52:24;;;;;;;;;;;12.30;79.80;;;;;;5074762;28;20360;-81
2022/09/22 08:54:50;;;;;;;;;;;12.40;77.70;;;;;;5045726;28;19916;-80
2022/09/22 08:57:27;;;;;;;;;;;12.50;77.80;;;;;;5074906;28;20038;-80
2022/09/22 09:00:13;;;;;;;;;;;12.50;77.50;;;;;;5052457;28;19961;-79
2022/09/22 09:02:45;;;;;;;;;;;12.50;77.30;;;;;;5052945;28;20043;-79
2022/09/22 09:05:28;;;;;;;;;;;12.60;75.70;;;;;;5074961;28;19920;-79
2022/09/22 09:08:12;;;;;;;;;;;12.80;74.80;;;;;;5058000;28;19917;-80
2022/09/22 09:10:55;;;;;;;;;;;12.90;74.80;;;;;;5069562;28;20015;-81
2022/09/22 09:13:43;;;;;;;;;;;12.90;75.80;;;;;;5056273;28;19916;-80
2022/09/22 09:16:09;;;;;;;;;;;13.00;75.60;;;;;;5075576;28;19913;-80
2022/09/22 09:18:36;;;;;;;;;;;13.10;73.90;;;;;;5057611;28;19934;-79
2022/09/22 09:21:05;;;;;;;;;;;13.20;71.70;;;;;;5058766;28;19920;-80
2022/09/22 09:23:33;;;;;;;;;;;13.30;70.30;;;;;;5075345;28;19920;-80
2022/09/22 09:26:00;;;;;;;;;;;13.40;70.50;;;;;;5074947;28;19972;-80
2022/09/22 09:28:31;;;;;;;;;;;13.40;72.10;;;;;;5074127;28;19959;-80
2022/09/22 09:31:15;;;;;;;;;;;13.60;71.20;;;;;;5052079;28;19997;-80
2022/09/22 09:33:56;;;;;;;;;;;13.60;69.20;;;;;;5069152;28;19912;-80
2022/09/22 09:36:24;;;;;;;;;;;13.60;70.70;;;;;;5060909;28;19909;-79
2022/09/22 09:38:53;;;;;;;;;;;13.80;68.90;;;;;;5077697;28;19935;-79
2022/09/22 09:41:23;;;;;;;;;;;13.90;67.90;;;;;;5079321;28;19913;-79
2022/09/22 09:43:50;;;;;;;;;;;14.00;68.00;;;;;;5051081;28;19985;-79
2022/09/22 09:46:18;;;;;;;;;;;14.10;66.60;;;;;;5078336;28;19909;-80
2022/09/22 09:49:10;;;;;;;;;;;14.20;66.60;;;;;;5043522;28;19913;-80
2022/09/22 09:51:38;;;;;;;;;;;14.20;66.30;;;;;;5048189;28;19912;-80
2022/09/22 09:54:06;;;;;;;;;;;14.30;66.70;;;;;;5053604;28;20011;-79
2022/09/22 09:56:32;;;;;;;;;;;14.40;66.20;;;;;;5055994;28;19909;-81
2022/09/22 10:01:45;;;;;;;;;;;14.30;64.50;;;;;;5065881;28;19920;-81
2022/09/22 10:04:28;;;;;;;;;;;14.30;64.50;;;;;;5042718;28;19913;-83
2022/09/22 10:06:55;;;;;;;;;;;14.30;66.50;;;;;;5074964;28;19917;-80
2022/09/22 10:09:27;;;;;;;;;;;14.40;66.70;;;;;;5074228;28;19920;-81
2022/09/22 10:12:00;;;;;;;;;;;14.50;65.70;;;;;;5081213;28;19920;-80
2022/09/22 10:14:28;;;;;;;;;;;14.40;65.30;;;;;;5071556;28;19920;-80
2022/09/22 10:16:53;;;;;;;;;;;14.50;66.70;;;;;;5081153;28;20381;-79
2022/09/22 10:19:20;;;;;;;;;;;14.60;65.30;;;;;;5054635;28;19932;-80
2022/09/22 10:21:45;;;;;;;;;;;14.70;62.40;;;;;;5044167;28;19955;-80
2022/09/22 10:24:30;;;;;;;;;;;14.80;62.40;;;;;;5080878;28;19916;-79
2022/09/22 10:26:56;;;;;;;;;;;15.00;60.50;;;;;;5062855;28;19909;-80
2022/09/22 10:29:22;;;;;;;;;;;15.10;60.50;;;;;;5056538;28;19917;-81
2022/09/22 10:32:06;;;;;;;;;;;15.30;63.00;;;;;;5052156;28;19917;-81
2022/09/22 10:34:33;;;;;;;;;;;15.60;59.30;;;;;;5057494;28;19912;-81
2022/09/22 10:37:00;;;;;;;;;;;16.00;58.70;;;;;;5075808;28;20462;-81
2022/09/22 10:39:31;;;;;;;;;;;16.30;55.80;;;;;;5050443;28;20018;-82
2022/09/22 10:41:56;;;;;;;;;;;16.20;56.80;;;;;;5057057;28;20267;-82
2022/09/22 10:44:24;;;;;;;;;;;16.20;54.80;;;;;;5053962;28;19919;-82
2022/09/22 10:46:58;;;;;;;;;;;16.40;52.60;;;;;;5062475;28;19999;-82
2022/09/22 10:49:32;;;;;;;;;;;16.30;53.50;;;;;;5054873;28;19959;-82
2022/09/22 10:52:01;;;;;;;;;;;16.30;55.80;;;;;;5076407;28;19953;-82
2022/09/22 10:54:45;;;;;;;;;;;16.30;58.00;;;;;;5053772;28;20258;-82
2022/09/22 10:57:17;;;;;;;;;;;16.20;56.40;;;;;;5060196;28;19919;-83
2022/09/22 10:59:43;;;;;;;;;;;16.20;56.40;;;;;;5080163;28;19966;-82
2022/09/22 11:02:19;;;;;;;;;;;16.30;57.30;;;;;;5051192;28;19917;-81
2022/09/22 11:05:04;;;;;;;;;;;16.20;57.20;;;;;;5085086;28;19916;-81
2022/09/22 11:13:36;;;;;;;;;;;16.70;50.90;;;;;;5074821;28;19927;-82
2022/09/22 11:16:02;;;;;;;;;;;16.80;50.60;;;;;;5064728;28;19913;-80
2022/09/22 11:18:30;;;;;;;;;;;16.80;51.10;;;;;;5070020;28;19916;-80
2022/09/22 11:21:16;;;;;;;;;;;16.80;50.60;;;;;;5078665;28;19920;-81
2022/09/22 11:23:44;;;;;;;;;;;16.70;52.20;;;;;;5058387;28;19919;-81
2022/09/22 11:26:13;;;;;;;;;;;16.60;53.70;;;;;;5041408;28;19913;-81
2022/09/22 11:29:05;;;;;;;;;;;16.60;55.60;;;;;;5040990;28;19909;-81
2022/09/22 11:31:30;;;;;;;;;;;16.60;55.10;;;;;;5043785;28;19916;-81
2022/09/22 11:34:02;;;;;;;;;;;16.70;53.20;;;;;;5043537;28;19920;-81
2022/09/22 11:36:30;;;;;;;;;;;17.00;50.80;;;;;;5053542;28;19909;-81
2022/09/22 11:39:12;;;;;;;;;;;17.00;52.30;;;;;;5055939;28;19913;-82
2022/09/22 11:41:38;;;;;;;;;;;17.20;53.20;;;;;;5059590;28;19973;-81
2022/09/22 11:44:09;;;;;;;;;;;17.20;49.70;;;;;;5078249;28;19909;-81
2022/09/22 11:46:54;;;;;;;;;;;17.20;49.10;;;;;;5052943;28;20377;-81
2022/09/22 11:49:26;;;;;;;;;;;17.30;50.90;;;;;;5054528;28;19931;-81
2022/09/22 11:52:10;;;;;;;;;;;17.60;49.20;;;;;;5075970;28;20411;-81
2022/09/22 11:54:55;;;;;;;;;;;17.70;49.00;;;;;;5049735;28;19912;-80
2022/09/22 11:57:22;;;;;;;;;;;17.70;46.50;;;;;;5047192;28;20011;-80
2022/09/22 11:59:57;;;;;;;;;;;17.60;48.60;;;;;;5071037;28;20269;-80
2022/09/22 12:02:25;;;;;;;;;;;17.60;48.60;;;;;;5048252;28;19920;-81
2022/09/22 12:04:57;;;;;;;;;;;17.50;47.90;;;;;;5069249;28;19920;-81
2022/09/22 12:07:28;;;;;;;;;;;17.60;48.30;;;;;;5072037;28;20364;-81
2022/09/22 12:09:57;;;;;;;;;;;17.80;48.90;;;;;;5054203;28;19959;-81
2022/09/22 12:12:22;;;;;;;;;;;17.50;51.40;;;;;;5061924;28;19916;-81
2022/09/22 12:14:56;;;;;;;;;;;17.30;49.20;;;;;;5055198;28;19928;-82
2022/09/22 12:17:28;;;;;;;;;;;17.20;51.50;;;;;;5053582;28;20007;-82
2022/09/22 12:19:54;;;;;;;;;;;17.30;50.10;;;;;;5052244;28;19935;-82
2022/09/22 12:22:22;;;;;;;;;;;17.20;50.50;;;;;;5069792;28;19917;-81
2022/09/22 12:24:48;;;;;;;;;;;17.00;50.80;;;;;;5051267;28;20620;-82
2022/09/22 12:27:23;;;;;;;;;;;17.10;49.00;;;;;;5085277;28;20012;-80
2022/09/22 12:29:53;;;;;;;;;;;16.80;50.10;;;;;;5066423;28;19973;-81
2022/09/22 12:32:39;;;;;;;;;;;16.80;51.70;;;;;;5050833;28;19916;-81
2022/09/22 12:35:05;;;;;;;;;;;16.60;50.10;;;;;;5069368;28;19984;-80
2022/09/22 12:37:32;;;;;;;;;;;16.70;50.40;;;;;;5068418;28;19923;-80
2022/09/22 12:40:02;;;;;;;;;;;16.80;50.60;;;;;;5087540;28;19921;-81
2022/09/22 12:42:31;;;;;;;;;;;16.80;51.00;;;;;;5097456;28;19900;-80
2022/09/22 12:44:58;;;;;;;;;;;16.90;52.10;;;;;;5070416;28;19980;-79
2022/09/22 12:47:23;;;;;;;;;;;17.10;50.50;;;;;;5058891;28;20464;-80
2022/09/22 12:49:51;;;;;;;;;;;17.00;51.70;;;;;;5108071;22;20055;-81
2022/09/22 12:52:36;;;;;;;;;;;17.10;51.80;;;;;;5087688;28;19920;-81
2022/09/22 12:55:37;;;;;;;;;;;17.10;48.70;;;;;;5111050;28;19912;-81
2022/09/22 12:58:04;;;;;;;;;;;17.10;50.80;;;;;;5092689;28;19912;-81
2022/09/22 13:00:36;;;;;;;;;;;17.10;49.60;;;;;;5073630;22;20393;-81
2022/09/22 13:03:20;;;;;;;;;;;17.00;48.30;;;;;;5049382;28;19973;-81
2022/09/22 13:05:46;;;;;;;;;;;17.00;47.70;;;;;;5064696;28;20007;-81
2022/09/22 13:08:15;;;;;;;;;;;17.20;49.30;;;;;;5056310;28;20396;-80
2022/09/22 13:10:42;;;;;;;;;;;17.30;49.10;;;;;;5067524;28;19913;-80
2022/09/22 13:13:08;;;;;;;;;;;17.20;51.00;;;;;;5053286;28;19932;-81
2022/09/22 13:15:42;;;;;;;;;;;17.20;50.30;;;;;;5060186;28;19939;-81
2022/09/22 13:18:28;;;;;;;;;;;17.20;49.10;;;;;;5051221;28;19909;-81
2022/09/22 13:20:53;;;;;;;;;;;17.30;48.50;;;;;;5057261;28;19939;-81
2022/09/22 13:23:19;;;;;;;;;;;17.30;49.20;;;;;;5072369;28;19913;-81
2022/09/22 13:25:44;;;;;;;;;;;17.40;49.60;;;;;;5063529;28;19929;-80
2022/09/22 13:28:14;;;;;;;;;;;17.40;50.70;;;;;;5058989;28;19948;-81
2022/09/22 13:30:41;;;;;;;;;;;17.20;51.30;;;;;;5057343;28;19970;-81
2022/09/22 13:33:23;;;;;;;;;;;17.30;49.10;;;;;;5066547;28;19923;-80
2022/09/22 13:36:00;;;;;;;;;;;17.30;47.70;;;;;;5065019;28;19940;-81
2022/09/22 13:38:26;;;;;;;;;;;17.10;48.60;;;;;;5059764;28;19939;-81
2022/09/22 13:40:52;;;;;;;;;;;17.20;48.00;;;;;;5063839;28;19913;-79
2022/09/22 13:43:26;;;;;;;;;;;17.50;48.20;;;;;;5053072;28;19928;-80
2022/09/22 13:45:52;;;;;;;;;;;17.60;46.10;;;;;;5070332;28;19931;-80
2022/09/22 13:48:18;;;;;;;;;;;17.60;47.40;;;;;;5050645;28;20021;-79
2022/09/22 13:50:52;;;;;;;;;;;17.70;46.80;;;;;;5058013;28;20343;-81
2022/09/22 13:53:19;;;;;;;;;;;17.70;46.50;;;;;;5047061;28;19917;-81
2022/09/22 13:55:49;;;;;;;;;;;17.90;46.00;;;;;;5044143;28;19921;-81
2022/09/22 13:58:20;;;;;;;;;;;17.80;47.90;;;;;;5033295;28;20537;-81
2022/09/22 14:00:47;;;;;;;;;;;17.90;45.80;;;;;;5060537;28;20258;-82
2022/09/22 14:03:17;;;;;;;;;;;18.10;45.30;;;;;;5055944;28;19947;-82
2022/09/22 14:05:44;;;;;;;;;;;18.20;45.00;;;;;;5045088;28;19945;-81
2022/09/22 14:08:10;;;;;;;;;;;18.30;46.00;;;;;;5051640;28;19913;-81
2022/09/22 14:10:36;;;;;;;;;;;18.30;44.70;;;;;;5035168;28;19917;-81
2022/09/22 14:13:02;;;;;;;;;;;18.10;45.60;;;;;;5039668;28;19923;-81
2022/09/22 14:15:46;;;;;;;;;;;18.10;47.00;;;;;;5037364;28;19913;-81
2022/09/22 14:18:23;;;;;;;;;;;17.90;46.60;;;;;;5049994;28;19979;-80
2022/09/22 14:20:49;;;;;;;;;;;17.90;46.00;;;;;;5052956;28;20365;-80
2022/09/22 14:23:17;;;;;;;;;;;17.90;48.70;;;;;;5048057;28;19993;-81
2022/09/22 14:25:42;;;;;;;;;;;17.70;49.10;;;;;;5053078;28;20004;-80
2022/09/22 14:28:35;;;;;;;;;;;17.60;49.50;;;;;;5038987;28;19956;-80
2022/09/22 14:31:01;;;;;;;;;;;17.40;48.50;;;;;;5047569;28;19912;-80
2022/09/22 14:33:28;;;;;;;;;;;17.30;48.60;;;;;;5053790;28;19913;-80
2022/09/22 14:35:58;;;;;;;;;;;17.30;48.50;;;;;;5050338;28;19921;-79
2022/09/22 14:38:25;;;;;;;;;;;17.30;48.10;;;;;;5053078;28;19913;-79
2022/09/22 14:40:52;;;;;;;;;;;17.50;48.00;;;;;;5043064;28;20484;-79
2022/09/22 14:43:36;;;;;;;;;;;17.60;47.10;;;;;;5052361;28;19940;-79
2022/09/22 14:46:16;;;;;;;;;;;17.60;50.90;;;;;;5032902;28;19921;-80
2022/09/22 14:48:42;;;;;;;;;;;17.60;48.30;;;;;;5057934;28;20376;-80
2022/09/22 14:51:13;;;;;;;;;;;17.50;47.70;;;;;;5052031;28;19932;-80
2022/09/22 14:53:44;;;;;;;;;;;17.40;50.40;;;;;;5054748;28;19912;-79